createdAt,value
2022-10-08T00:04:41.874Z,100.00
2022-10-08T00:09:47.789Z,100.00
2022-10-08T00:14:49.331Z,100.00
2022-10-08T00:19:59.817Z,100.00
2022-10-08T00:25:17.840Z,100.00
2022-10-08T00:30:19.421Z,100.00
2022-10-08T00:35:23.898Z,100.00
2022-10-08T00:40:25.528Z,100.00
2022-10-08T00:45:30.997Z,100.00
2022-10-08T00:50:34.723Z,100.00
2022-10-08T00:55:43.341Z,100.00
2022-10-08T01:00:46.039Z,100.00
2022-10-08T01:06:37.216Z,100.00
2022-10-08T01:11:50.461Z,100.00
2022-10-08T01:17:13.770Z,100.00
2022-10-08T01:22:52.878Z,100.00
2022-10-08T01:28:00.986Z,100.00
2022-10-08T01:33:23.106Z,100.00
2022-10-08T01:38:27.657Z,100.00
2022-10-08T01:43:34.098Z,100.00
2022-10-08T01:48:40.822Z,100.00
2022-10-08T01:53:45.846Z,100.00
2022-10-08T01:59:06.071Z,100.00
2022-10-08T02:04:27.493Z,100.00
2022-10-08T02:09:32.104Z,100.00
2022-10-08T02:14:39.584Z,100.00
2022-10-08T02:20:17.129Z,100.00
2022-10-08T02:25:24.477Z,100.00
2022-10-08T02:30:32.136Z,100.00
2022-10-08T02:35:40.411Z,100.00
2022-10-08T02:40:47.349Z,100.00
2022-10-08T02:46:03.320Z,100.00
2022-10-08T02:51:11.071Z,100.00
2022-10-08T02:56:24.315Z,100.00
2022-10-08T03:01:37.751Z,100.00
2022-10-08T03:06:41.773Z,100.00
2022-10-08T03:11:48.484Z,100.00
2022-10-08T03:16:54.059Z,100.00
2022-10-08T03:21:56.589Z,100.00
2022-10-08T03:26:58.720Z,100.00
2022-10-08T03:32:00.413Z,100.00
2022-10-08T03:37:11.935Z,100.00
2022-10-08T03:42:13.524Z,100.00
2022-10-08T03:47:23.921Z,100.00
2022-10-08T03:52:25.495Z,100.00
2022-10-08T03:57:29.967Z,100.00
2022-10-08T04:02:32.576Z,100.00
2022-10-08T04:07:41.960Z,100.00
2022-10-08T04:12:43.472Z,100.00
2022-10-08T04:17:45.067Z,100.00
2022-10-08T04:22:49.026Z,100.00
2022-10-08T04:27:53.967Z,100.00
2022-10-08T04:32:56.136Z,100.00
2022-10-08T04:37:59.966Z,100.00
2022-10-08T04:43:12.048Z,100.00
2022-10-08T04:48:16.686Z,100.00
2022-10-08T04:53:25.717Z,100.00
2022-10-08T04:58:27.305Z,100.00
2022-10-08T05:03:28.806Z,100.00
2022-10-08T05:08:36.248Z,100.00
2022-10-08T05:13:37.852Z,100.00
2022-10-08T05:18:41.412Z,100.00
2022-10-08T05:23:43.448Z,100.00
2022-10-08T05:28:49.327Z,100.00
2022-10-08T05:33:51.450Z,100.00
2022-10-08T05:38:53.795Z,100.00
2022-10-08T05:43:56.519Z,100.00
2022-10-08T05:49:00.688Z,100.00
2022-10-08T05:54:05.998Z,100.00
2022-10-08T05:59:07.702Z,100.00
2022-10-08T06:04:12.491Z,100.00
2022-10-08T06:09:20.537Z,100.00
2022-10-08T06:14:22.226Z,100.00
2022-10-08T06:19:23.775Z,100.00
2022-10-08T06:24:42.039Z,100.00
2022-10-08T06:29:48.015Z,100.00
2022-10-08T06:34:54.131Z,100.00
2022-10-08T06:39:55.647Z,100.00
2022-10-08T06:45:12.025Z,100.00
2022-10-08T06:50:18.039Z,100.00
2022-10-08T06:55:31.204Z,100.00
2022-10-08T07:00:36.182Z,100.00
2022-10-08T07:05:43.864Z,100.00
2022-10-08T07:10:45.391Z,100.00
2022-10-08T07:15:46.936Z,100.00
2022-10-08T07:21:18.996Z,100.00
2022-10-08T07:26:26.543Z,100.00
2022-10-08T07:31:31.317Z,100.00
2022-10-08T07:36:48.058Z,100.00
2022-10-08T07:41:54.183Z,100.00
2022-10-08T07:46:56.868Z,100.00
2022-10-08T07:51:58.395Z,100.00
2022-10-08T07:57:02.033Z,100.00
2022-10-08T08:02:12.125Z,100.00
2022-10-08T08:07:18.076Z,100.00
2022-10-08T08:12:19.609Z,100.00
2022-10-08T08:17:21.163Z,100.00
2022-10-08T08:22:30.085Z,100.00
2022-10-08T08:27:31.648Z,100.00
2022-10-08T08:32:33.446Z,100.00
2022-10-08T08:37:36.113Z,100.00
2022-10-08T08:42:54.169Z,100.00
2022-10-08T08:48:07.396Z,100.00
2022-10-08T08:53:10.782Z,100.00
2022-10-08T08:58:58.545Z,100.00
2022-10-08T09:04:50.260Z,100.00
2022-10-08T09:09:53.916Z,100.00
2022-10-08T09:15:23.604Z,100.00
2022-10-08T09:20:25.756Z,100.00
2022-10-08T09:25:36.760Z,100.00
2022-10-08T09:30:44.998Z,98.80
2022-10-08T09:35:49.602Z,97.95
2022-10-08T09:41:17.508Z,95.37
2022-10-08T09:46:30.923Z,93.96
2022-10-08T09:51:34.849Z,91.07
2022-10-08T09:56:36.462Z,88.92
2022-10-08T10:01:45.789Z,87.88
2022-10-08T10:06:48.400Z,84.89
2022-10-08T10:12:06.037Z,83.86
2022-10-08T10:17:18.098Z,82.04
2022-10-08T10:22:27.828Z,81.85
2022-10-08T10:27:36.161Z,81.50
2022-10-08T10:32:43.998Z,75.13
2022-10-08T10:38:01.036Z,73.73
2022-10-08T10:43:33.346Z,72.26
2022-10-08T10:48:35.052Z,73.15
2022-10-08T10:54:06.333Z,72.34
2022-10-08T10:59:51.803Z,71.33
2022-10-08T11:05:29.522Z,72.04
2022-10-08T11:10:39.825Z,71.84
2022-10-08T11:15:46.313Z,71.25
2022-10-08T11:21:12.736Z,71.23
2022-10-08T11:26:23.089Z,70.60
2022-10-08T11:31:41.556Z,69.56
2022-10-08T11:36:50.087Z,69.28
2022-10-08T11:42:10.139Z,67.45
2022-10-08T11:47:40.111Z,68.69
2022-10-08T11:52:41.559Z,68.64
2022-10-08T11:58:06.545Z,68.64
2022-10-08T12:03:39.662Z,68.66
2022-10-08T12:08:58.906Z,67.81
2022-10-08T12:14:12.419Z,66.94
2022-10-08T12:19:36.136Z,66.12
2022-10-08T12:24:37.647Z,66.58
2022-10-08T12:29:57.712Z,64.34
2022-10-08T12:35:01.570Z,63.91
2022-10-08T12:40:29.052Z,61.59
2022-10-08T12:45:39.977Z,63.59
2022-10-08T12:50:47.525Z,63.10
2022-10-08T12:55:53.913Z,62.16
2022-10-08T13:00:59.563Z,62.13
2022-10-08T13:06:34.062Z,61.62
2022-10-08T13:11:35.776Z,62.11
2022-10-08T13:16:49.544Z,61.76
2022-10-08T13:22:21.303Z,61.78
2022-10-08T13:27:29.158Z,62.57
2022-10-08T13:32:35.212Z,62.20
2022-10-08T13:37:39.200Z,62.75
2022-10-08T13:42:44.565Z,62.01
2022-10-08T13:47:46.894Z,62.46
2022-10-08T13:52:54.334Z,62.73
2022-10-08T13:58:02.188Z,62.86
2022-10-08T14:03:03.819Z,62.64
2022-10-08T14:08:12.842Z,63.01
2022-10-08T14:13:16.129Z,61.83
2022-10-08T14:18:18.287Z,64.55
2022-10-08T14:23:33.396Z,64.21
2022-10-08T14:28:35.313Z,65.82
2022-10-08T14:33:36.923Z,65.63
2022-10-08T14:38:38.440Z,64.54
2022-10-08T14:43:40.969Z,66.16
2022-10-08T14:48:42.485Z,66.37
2022-10-08T14:53:44.055Z,67.18
2022-10-08T14:58:45.607Z,66.73
2022-10-08T15:03:48.369Z,66.86
2022-10-08T15:08:49.964Z,66.67
2022-10-08T15:13:55.384Z,66.79
2022-10-08T15:18:56.913Z,67.13
2022-10-08T15:23:58.438Z,67.05
2022-10-08T15:29:00.833Z,66.79
2022-10-08T15:34:06.401Z,67.11
2022-10-08T15:39:12.046Z,67.73
2022-10-08T15:44:22.084Z,68.37
2022-10-08T15:49:23.762Z,69.19
2022-10-08T15:54:25.400Z,70.29
2022-10-08T15:59:26.930Z,70.36
2022-10-08T16:04:30.492Z,70.64
2022-10-08T16:09:36.435Z,71.64
2022-10-08T16:14:37.944Z,72.61
2022-10-08T16:19:42.406Z,73.22
2022-10-08T16:25:18.255Z,73.41
2022-10-08T16:30:19.781Z,74.21
2022-10-08T16:35:21.279Z,74.93
2022-10-08T16:40:22.853Z,75.42
2022-10-08T16:45:24.440Z,76.16
2022-10-08T16:50:25.992Z,77.25
2022-10-08T16:55:38.404Z,78.47
2022-10-08T17:00:39.913Z,80.37
2022-10-08T17:05:42.299Z,81.42
2022-10-08T17:10:54.519Z,82.44
2022-10-08T17:16:02.861Z,83.47
2022-10-08T17:21:05.848Z,84.32
2022-10-08T17:26:13.748Z,84.92
2022-10-08T17:31:24.544Z,85.40
2022-10-08T17:36:28.976Z,85.93
2022-10-08T17:41:54.425Z,86.14
2022-10-08T17:46:55.975Z,86.12
2022-10-08T17:51:57.508Z,88.13
2022-10-08T17:57:06.428Z,89.61
2022-10-08T18:02:08.548Z,90.03
2022-10-08T18:07:12.250Z,89.54
2022-10-08T18:12:24.895Z,90.09
2022-10-08T18:17:48.324Z,90.46
2022-10-08T18:22:54.450Z,90.59
2022-10-08T18:28:06.493Z,91.19
2022-10-08T18:33:08.222Z,91.87
2022-10-08T18:38:18.443Z,92.71
2022-10-08T18:43:19.989Z,93.20
2022-10-08T18:48:21.548Z,94.14
2022-10-08T18:53:23.071Z,95.24
2022-10-08T18:58:24.641Z,96.45
2022-10-08T19:03:28.279Z,96.93
2022-10-08T19:08:36.510Z,97.33
2022-10-08T19:13:49.075Z,97.62
2022-10-08T19:18:59.243Z,97.93
2022-10-08T19:24:08.134Z,98.92
2022-10-08T19:29:21.987Z,100.00
2022-10-08T19:35:06.294Z,100.00
2022-10-08T19:40:08.192Z,100.00
2022-10-08T19:45:30.391Z,100.00
2022-10-08T19:50:48.516Z,100.00
2022-10-08T19:55:54.537Z,100.00
2022-10-08T20:01:03.716Z,100.00
2022-10-08T20:06:07.676Z,100.00
2022-10-08T20:11:13.080Z,100.00
2022-10-08T20:16:21.469Z,100.00
2022-10-08T20:21:24.872Z,100.00
2022-10-08T20:26:31.554Z,100.00
2022-10-08T20:31:43.289Z,100.00
2022-10-08T20:36:46.876Z,100.00
2022-10-08T20:41:48.782Z,100.00
2022-10-08T20:46:50.866Z,100.00
2022-10-08T20:51:54.533Z,100.00
2022-10-08T20:56:56.826Z,100.00
2022-10-08T21:01:58.420Z,100.00
2022-10-08T21:07:00.829Z,100.00
2022-10-08T21:12:12.621Z,100.00
2022-10-08T21:17:14.165Z,100.00
2022-10-08T21:22:18.575Z,100.00
2022-10-08T21:27:20.099Z,100.00
2022-10-08T21:32:21.669Z,100.00
2022-10-08T21:37:23.231Z,100.00
2022-10-08T21:42:24.753Z,100.00
2022-10-08T21:47:26.595Z,100.00
2022-10-08T21:52:28.119Z,100.00
2022-10-08T21:57:29.659Z,100.00
2022-10-08T22:02:31.248Z,100.00
2022-10-08T22:07:32.803Z,100.00
2022-10-08T22:12:34.324Z,100.00
2022-10-08T22:17:35.873Z,100.00
2022-10-08T22:22:37.390Z,100.00
2022-10-08T22:27:38.925Z,100.00
2022-10-08T22:32:40.460Z,100.00
2022-10-08T22:37:42.627Z,100.00
2022-10-08T22:42:44.225Z,100.00
2022-10-08T22:47:46.362Z,100.00
2022-10-08T22:52:50.055Z,100.00
2022-10-08T22:57:52.049Z,100.00
2022-10-08T23:02:54.687Z,100.00
2022-10-08T23:07:56.736Z,100.00
2022-10-08T23:12:58.271Z,100.00
2022-10-08T23:17:59.800Z,100.00
2022-10-08T23:23:01.334Z,100.00
2022-10-08T23:28:02.922Z,100.00
2022-10-08T23:33:06.584Z,100.00
2022-10-08T23:38:18.657Z,100.00
2022-10-08T23:43:20.316Z,100.00
2022-10-08T23:48:22.134Z,100.00
2022-10-08T23:53:23.708Z,100.00
2022-10-08T23:58:25.764Z,100.00
